createdAt,value
2022-11-17T00:01:44.497Z,98637.22
2022-11-17T00:04:10.973Z,98635.22
2022-11-17T00:06:37.367Z,98636.72
2022-11-17T00:09:03.782Z,98635.84
2022-11-17T00:11:52.780Z,98637.81
2022-11-17T00:14:34.203Z,98635.19
2022-11-17T00:17:01.534Z,98632.06
2022-11-17T00:19:46.996Z,98635.19
2022-11-17T00:22:13.931Z,98633.53
2022-11-17T00:24:40.363Z,98639.13
2022-11-17T00:27:07.040Z,98630.38
2022-11-17T00:29:36.312Z,98635.13
2022-11-17T00:32:32.290Z,98629.50
2022-11-17T00:34:58.807Z,98629.84
2022-11-17T00:37:26.726Z,98620.81
2022-11-17T00:39:57.732Z,98621.97
2022-11-17T00:42:26.876Z,98627.19
2022-11-17T00:44:53.225Z,98631.28
2022-11-17T00:47:19.602Z,98623.25
2022-11-17T00:49:45.991Z,98628.38
2022-11-17T00:52:12.359Z,98624.25
2022-11-17T00:54:38.744Z,98610.72
2022-11-17T00:57:05.171Z,98606.25
2022-11-17T00:59:31.698Z,98613.50
2022-11-17T01:01:58.136Z,98612.00
2022-11-17T01:04:24.608Z,98612.63
2022-11-17T01:06:51.067Z,98616.25
2022-11-17T01:09:22.919Z,98624.31
2022-11-17T01:11:51.707Z,98619.84
2022-11-17T01:14:21.356Z,98618.69
2022-11-17T01:16:48.079Z,98610.31
2022-11-17T01:19:15.644Z,98600.50
2022-11-17T01:21:42.543Z,98605.25
2022-11-17T01:24:11.144Z,98612.34
2022-11-17T01:26:38.565Z,98606.69
2022-11-17T01:29:05.733Z,98609.00
2022-11-17T01:31:35.537Z,98609.69
2022-11-17T01:34:02.270Z,98600.97
2022-11-17T01:36:57.016Z,98600.75
2022-11-17T01:39:25.181Z,98600.09
2022-11-17T01:41:52.809Z,98587.28
2022-11-17T01:44:56.469Z,98591.53
2022-11-17T01:47:44.219Z,98600.09
2022-11-17T01:50:34.208Z,98594.84
2022-11-17T01:53:05.025Z,98593.50
2022-11-17T01:55:37.261Z,98591.84
2022-11-17T01:58:11.356Z,98595.16
2022-11-17T02:00:37.909Z,98595.16
2022-11-17T02:03:07.104Z,98588.59
2022-11-17T02:05:56.592Z,98582.53
2022-11-17T02:08:26.157Z,98582.66
2022-11-17T02:10:53.654Z,98584.97
2022-11-17T02:13:21.820Z,98577.41
2022-11-17T02:15:48.205Z,98572.16
2022-11-17T02:18:17.093Z,98563.94
2022-11-17T02:21:13.792Z,98572.47
2022-11-17T02:23:52.211Z,98575.03
2022-11-17T02:26:39.968Z,98573.09
2022-11-17T02:29:15.701Z,98566.88
2022-11-17T02:32:11.714Z,98567.53
2022-11-17T02:34:48.535Z,98566.84
2022-11-17T02:37:24.187Z,98571.47
2022-11-17T02:40:02.819Z,98563.22
2022-11-17T02:43:00.076Z,98562.91
2022-11-17T02:45:39.757Z,98573.91
2022-11-17T02:48:13.177Z,98566.50
2022-11-17T02:50:43.219Z,98569.50
2022-11-17T02:53:10.133Z,98572.28
2022-11-17T02:55:38.611Z,98569.78
2022-11-17T02:58:11.595Z,98573.41
2022-11-17T03:00:45.750Z,98575.91
2022-11-17T03:03:32.758Z,98570.09
2022-11-17T03:05:59.722Z,98572.41
2022-11-17T03:08:57.543Z,98556.63
2022-11-17T03:11:55.426Z,98563.22
2022-11-17T03:14:38.159Z,98554.34
2022-11-17T03:17:16.691Z,98554.34
2022-11-17T03:20:04.474Z,98553.00
2022-11-17T03:22:41.951Z,98557.13
2022-11-17T03:25:14.596Z,98553.06
2022-11-17T03:27:46.890Z,98555.31
2022-11-17T03:30:14.059Z,98553.53
2022-11-17T03:32:46.531Z,98545.50
2022-11-17T03:35:19.670Z,98543.50
2022-11-17T03:37:51.068Z,98544.81
2022-11-17T03:40:22.178Z,98541.50
2022-11-17T03:42:53.971Z,98549.09
2022-11-17T03:45:25.262Z,98551.69
2022-11-17T03:47:59.316Z,98548.75
2022-11-17T03:50:33.583Z,98550.03
2022-11-17T03:53:03.151Z,98551.69
2022-11-17T03:55:40.339Z,98546.44
2022-11-17T03:58:12.593Z,98553.31
2022-11-17T04:00:41.948Z,98550.56
2022-11-17T04:03:08.890Z,98543.63
2022-11-17T04:05:35.260Z,98533.13
2022-11-17T04:08:01.734Z,98543.44
2022-11-17T04:10:28.191Z,98542.50
2022-11-17T04:13:13.298Z,98535.81
2022-11-17T04:15:58.853Z,98536.56
2022-11-17T04:18:25.871Z,98531.59
2022-11-17T04:20:54.262Z,98521.09
2022-11-17T04:23:20.809Z,98520.06
2022-11-17T04:26:08.866Z,98521.41
2022-11-17T04:28:38.465Z,98526.22
2022-11-17T04:31:13.961Z,98526.19
2022-11-17T04:33:48.301Z,98526.34
2022-11-17T04:36:17.938Z,98534.56
2022-11-17T04:38:46.991Z,98535.09
2022-11-17T04:41:34.539Z,98523.25
2022-11-17T04:44:02.472Z,98526.69
2022-11-17T04:46:33.831Z,98527.38
2022-11-17T04:49:01.010Z,98521.59
2022-11-17T04:51:28.517Z,98514.53
2022-11-17T04:53:54.996Z,98515.84
2022-11-17T04:56:23.248Z,98515.00
2022-11-17T04:58:50.175Z,98508.94
2022-11-17T05:01:18.690Z,98506.97
2022-11-17T05:03:46.803Z,98516.97
2022-11-17T05:06:19.383Z,98506.97
2022-11-17T05:08:45.777Z,98506.50
2022-11-17T05:11:32.606Z,98503.03
2022-11-17T05:13:59.018Z,98505.34
2022-11-17T05:16:44.680Z,98503.34
2022-11-17T05:19:15.235Z,98501.91
2022-11-17T05:21:41.814Z,98491.72
2022-11-17T05:24:08.858Z,98489.59
2022-11-17T05:26:37.247Z,98472.66
2022-11-17T05:29:06.056Z,98479.06
2022-11-17T05:31:32.513Z,98480.91
2022-11-17T05:33:59.380Z,98496.28
2022-11-17T05:36:27.242Z,98493.97
2022-11-17T05:38:54.336Z,98483.66
2022-11-17T05:41:21.564Z,98482.66
2022-11-17T05:43:50.273Z,98477.09
2022-11-17T05:46:18.891Z,98482.34
2022-11-17T05:48:46.257Z,98481.03
2022-11-17T05:51:13.040Z,98475.59
2022-11-17T05:53:39.512Z,98476.75
2022-11-17T05:56:33.611Z,98482.34
2022-11-17T05:59:27.801Z,98482.34
2022-11-17T06:02:24.141Z,98486.94
2022-11-17T06:04:51.368Z,98496.16
2022-11-17T06:07:18.506Z,98492.22
2022-11-17T06:09:46.253Z,98486.97
2022-11-17T06:12:12.605Z,98495.34
2022-11-17T06:14:39.755Z,98494.22
2022-11-17T06:17:12.794Z,98493.16
2022-11-17T06:19:44.192Z,98490.41
2022-11-17T06:22:12.752Z,98490.22
2022-11-17T06:24:44.735Z,98484.69
2022-11-17T06:27:13.574Z,98481.69
2022-11-17T06:29:44.223Z,98483.69
2022-11-17T06:32:15.878Z,98478.78
2022-11-17T06:34:49.108Z,98473.50
2022-11-17T06:37:16.938Z,98482.03
2022-11-17T06:39:43.305Z,98476.81
2022-11-17T06:42:09.739Z,98482.25
2022-11-17T06:44:36.098Z,98488.94
2022-11-17T06:47:02.645Z,98489.44
2022-11-17T06:49:29.305Z,98481.72
2022-11-17T06:51:55.711Z,98475.13
2022-11-17T06:54:22.070Z,98472.88
2022-11-17T06:56:49.878Z,98469.75
2022-11-17T06:59:16.901Z,98462.03
2022-11-17T07:01:43.444Z,98465.94
2022-11-17T07:04:09.948Z,98464.66
2022-11-17T07:06:37.145Z,98458.94
2022-11-17T07:09:05.093Z,98463.22
2022-11-17T07:11:35.881Z,98465.72
2022-11-17T07:14:02.241Z,98467.03
2022-11-17T07:16:30.655Z,98474.91
2022-11-17T07:18:59.098Z,98474.59
2022-11-17T07:21:28.150Z,98477.03
2022-11-17T07:23:54.540Z,98465.72
2022-11-17T07:26:20.907Z,98456.19
2022-11-17T07:28:47.349Z,98460.13
2022-11-17T07:31:13.746Z,98459.13
2022-11-17T07:33:40.141Z,98461.63
2022-11-17T07:36:09.748Z,98447.03
2022-11-17T07:38:37.145Z,98459.50
2022-11-17T07:41:05.104Z,98461.47
2022-11-17T07:43:32.557Z,98464.09
2022-11-17T07:45:58.938Z,98447.66
2022-11-17T07:48:25.350Z,98450.97
2022-11-17T07:50:51.776Z,98457.22
2022-11-17T07:53:18.170Z,98460.81
2022-11-17T07:55:44.727Z,98454.25
2022-11-17T07:58:11.195Z,98455.09
2022-11-17T08:00:37.718Z,98465.13
2022-11-17T08:03:04.825Z,98459.56
2022-11-17T08:05:37.090Z,98455.25
2022-11-17T08:08:07.936Z,98463.13
2022-11-17T08:10:34.610Z,98447.72
2022-11-17T08:13:01.158Z,98455.44
2022-11-17T08:15:29.472Z,98450.03
2022-11-17T08:17:57.982Z,98452.66
2022-11-17T08:20:25.832Z,98447.06
2022-11-17T08:22:53.350Z,98451.84
2022-11-17T08:25:21.172Z,98445.91
2022-11-17T08:27:51.836Z,98435.41
2022-11-17T08:30:20.461Z,98437.38
2022-11-17T08:32:49.239Z,98447.41
2022-11-17T08:35:17.103Z,98446.44
2022-11-17T08:37:43.550Z,98445.63
2022-11-17T08:40:11.528Z,98439.69
2022-11-17T08:42:38.258Z,98439.50
2022-11-17T08:45:06.040Z,98431.63
2022-11-17T08:47:33.080Z,98436.25
2022-11-17T08:49:59.847Z,98441.16
2022-11-17T08:52:29.249Z,98448.06
2022-11-17T08:54:55.794Z,98449.41
2022-11-17T08:57:22.522Z,98447.41
2022-11-17T08:59:49.416Z,98450.38
2022-11-17T09:02:16.773Z,98457.94
2022-11-17T09:04:43.287Z,98450.72
2022-11-17T09:07:09.710Z,98462.53
2022-11-17T09:09:36.153Z,98464.22
2022-11-17T09:12:02.537Z,98465.50
2022-11-17T09:14:28.913Z,98471.09
2022-11-17T09:16:55.271Z,98480.31
2022-11-17T09:19:21.654Z,98467.47
2022-11-17T09:21:48.105Z,98468.16
2022-11-17T09:24:15.571Z,98463.88
2022-11-17T09:26:43.013Z,98458.28
2022-11-17T09:29:09.506Z,98456.28
2022-11-17T09:31:36.374Z,98456.28
2022-11-17T09:34:05.532Z,98458.94
2022-11-17T09:36:32.408Z,98456.97
2022-11-17T09:38:58.783Z,98458.28
2022-11-17T09:41:35.621Z,98458.59
2022-11-17T09:44:14.079Z,98458.94
2022-11-17T09:46:40.386Z,98448.06
2022-11-17T09:49:22.818Z,98455.81
2022-11-17T09:51:50.833Z,98439.38
2022-11-17T09:54:30.293Z,98430.66
2022-11-17T09:56:58.228Z,98452.69
2022-11-17T09:59:27.878Z,98454.34
2022-11-17T10:01:54.319Z,98441.81
2022-11-17T10:04:20.811Z,98441.50
2022-11-17T10:06:50.647Z,98440.53
2022-11-17T10:09:33.094Z,98440.81
2022-11-17T10:12:14.729Z,98432.28
2022-11-17T10:14:41.424Z,98430.47
2022-11-17T10:17:09.741Z,98424.38
2022-11-17T10:19:40.764Z,98418.78
2022-11-17T10:22:07.139Z,98418.78
2022-11-17T10:24:47.557Z,98422.38
2022-11-17T10:27:31.919Z,98426.69
2022-11-17T10:30:04.628Z,98426.34
2022-11-17T10:32:37.712Z,98421.09
2022-11-17T10:35:36.384Z,98402.31
2022-11-17T10:38:06.924Z,98394.25
2022-11-17T10:40:47.683Z,98394.41
2022-11-17T10:43:14.134Z,98391.13
2022-11-17T10:45:45.572Z,98388.63
2022-11-17T10:48:36.585Z,98380.91
2022-11-17T10:51:04.588Z,98389.31
2022-11-17T10:53:30.968Z,98387.19
2022-11-17T10:56:11.075Z,98391.78
2022-11-17T10:58:58.207Z,98379.94
2022-11-17T11:01:33.694Z,98387.50
2022-11-17T11:04:00.585Z,98383.22
2022-11-17T11:06:32.176Z,98389.09
2022-11-17T11:09:06.123Z,98385.16
2022-11-17T11:11:56.306Z,98373.63
2022-11-17T11:14:39.096Z,98381.88
2022-11-17T11:17:14.035Z,98384.69
2022-11-17T11:19:43.025Z,98397.53
2022-11-17T11:22:32.022Z,98391.75
2022-11-17T11:25:13.690Z,98391.13
2022-11-17T11:28:18.645Z,98395.38
2022-11-17T11:31:06.355Z,98391.41
2022-11-17T11:33:47.516Z,98390.78
2022-11-17T11:36:29.568Z,98378.56
2022-11-17T11:38:58.852Z,98385.31
2022-11-17T11:41:39.656Z,98369.69
2022-11-17T11:44:34.601Z,98359.44
2022-11-17T11:47:38.524Z,98356.81
2022-11-17T11:50:19.879Z,98353.81
2022-11-17T11:52:51.957Z,98342.25
2022-11-17T11:55:27.754Z,98336.31
2022-11-17T11:58:17.079Z,98347.84
2022-11-17T12:00:44.721Z,98348.44
2022-11-17T12:03:24.172Z,98338.59
2022-11-17T12:06:34.016Z,98344.19
2022-11-17T12:09:09.418Z,98345.72
2022-11-17T12:11:58.625Z,98339.63
2022-11-17T12:14:25.199Z,98336.66
2022-11-17T12:17:01.539Z,98333.72
2022-11-17T12:19:46.215Z,98327.66
2022-11-17T12:22:24.113Z,98328.13
2022-11-17T12:24:57.874Z,98330.56
2022-11-17T12:27:52.406Z,98340.16
2022-11-17T12:30:30.795Z,98335.72
2022-11-17T12:32:59.170Z,98339.50
2022-11-17T12:35:28.695Z,98329.84
2022-11-17T12:38:16.698Z,98324.91
2022-11-17T12:40:48.863Z,98326.69
2022-11-17T12:43:15.276Z,98329.88
2022-11-17T12:45:53.687Z,98325.25
2022-11-17T12:48:37.768Z,98331.34
2022-11-17T12:51:10.063Z,98330.84
2022-11-17T12:54:13.760Z,98316.91
2022-11-17T12:56:56.089Z,98316.06
2022-11-17T12:59:24.750Z,98311.13
2022-11-17T13:02:11.025Z,98309.84
2022-11-17T13:04:49.437Z,98310.88
2022-11-17T13:07:22.123Z,98308.22
2022-11-17T13:09:53.719Z,98307.91
2022-11-17T13:12:28.529Z,98309.06
2022-11-17T13:14:57.268Z,98315.44
2022-11-17T13:17:32.205Z,98320.03
2022-11-17T13:20:04.875Z,98327.94
2022-11-17T13:22:31.294Z,98330.44
2022-11-17T13:24:57.864Z,98321.72
2022-11-17T13:27:31.084Z,98317.41
2022-11-17T13:30:25.892Z,98320.72
2022-11-17T13:32:52.444Z,98324.34
2022-11-17T13:35:33.026Z,98311.69
2022-11-17T13:38:11.379Z,98313.50
2022-11-17T13:40:40.320Z,98314.81
2022-11-17T13:43:12.088Z,98311.53
2022-11-17T13:45:38.653Z,98311.53
2022-11-17T13:48:05.226Z,98313.50
2022-11-17T13:50:31.532Z,98309.59
2022-11-17T13:53:23.568Z,98313.50
2022-11-17T13:55:50.620Z,98315.00
2022-11-17T13:58:32.013Z,98300.19
2022-11-17T14:00:59.360Z,98301.03
2022-11-17T14:03:38.354Z,98308.22
2022-11-17T14:06:07.793Z,98309.53
2022-11-17T14:08:35.683Z,98314.66
2022-11-17T14:11:11.383Z,98315.81
2022-11-17T14:13:58.813Z,98317.28
2022-11-17T14:16:37.280Z,98317.16
2022-11-17T14:19:15.804Z,98318.78
2022-11-17T14:22:03.999Z,98310.22
2022-11-17T14:24:33.451Z,98307.78
2022-11-17T14:27:00.257Z,98313.19
2022-11-17T14:29:28.044Z,98314.19
2022-11-17T14:31:57.040Z,98317.81
2022-11-17T14:34:23.845Z,98312.22
2022-11-17T14:36:54.133Z,98319.63
2022-11-17T14:39:21.032Z,98310.41
2022-11-17T14:41:50.393Z,98305.63
2022-11-17T14:44:17.143Z,98312.91
2022-11-17T14:46:43.620Z,98306.66
2022-11-17T14:49:10.610Z,98305.03
2022-11-17T14:51:37.048Z,98302.72
2022-11-17T14:54:03.932Z,98299.56
2022-11-17T14:56:30.470Z,98309.13
2022-11-17T14:58:59.911Z,98302.72
2022-11-17T15:01:33.609Z,98297.47
2022-11-17T15:04:27.194Z,98301.72
2022-11-17T15:06:51.665Z,98306.97
2022-11-17T15:09:20.397Z,98311.59
2022-11-17T15:11:46.785Z,98317.50
2022-11-17T15:14:13.843Z,98308.63
2022-11-17T15:16:40.614Z,98309.63
2022-11-17T15:19:07.123Z,98326.06
2022-11-17T15:21:33.894Z,98318.31
2022-11-17T15:24:02.452Z,98317.03
2022-11-17T15:26:28.854Z,98327.22
2022-11-17T15:28:57.804Z,98318.84
2022-11-17T15:31:24.245Z,98319.47
2022-11-17T15:33:50.612Z,98323.44
2022-11-17T15:36:19.406Z,98321.13
2022-11-17T15:38:47.401Z,98326.06
2022-11-17T15:41:15.025Z,98324.41
2022-11-17T15:43:43.283Z,98331.00
2022-11-17T15:46:17.437Z,98323.44
2022-11-17T15:48:54.979Z,98327.72
2022-11-17T15:51:24.898Z,98328.69
2022-11-17T15:53:56.303Z,98326.06
2022-11-17T15:56:25.116Z,98321.78
2022-11-17T15:59:01.708Z,98321.13
2022-11-17T16:01:32.702Z,98315.88
2022-11-17T16:04:15.396Z,98316.69
2022-11-17T16:06:43.328Z,98309.47
2022-11-17T16:09:10.259Z,98314.56
2022-11-17T16:11:37.485Z,98308.47
2022-11-17T16:14:04.413Z,98309.63
2022-11-17T16:16:33.466Z,98312.59
2022-11-17T16:19:00.414Z,98305.69
2022-11-17T16:21:26.953Z,98303.22
2022-11-17T16:23:55.763Z,98297.47
2022-11-17T16:26:24.459Z,98308.00
2022-11-17T16:28:58.759Z,98308.31
2022-11-17T16:31:28.306Z,98305.22
2022-11-17T16:33:57.753Z,98306.34
2022-11-17T16:36:28.084Z,98309.97
2022-11-17T16:39:02.115Z,98306.19
2022-11-17T16:41:32.628Z,98308.31
2022-11-17T16:44:00.273Z,98311.97
2022-11-17T16:46:29.822Z,98304.69
2022-11-17T16:49:00.320Z,98296.31
2022-11-17T16:51:26.732Z,98287.97
2022-11-17T16:54:10.461Z,98289.78
2022-11-17T16:56:37.089Z,98292.06
2022-11-17T16:59:04.021Z,98290.59
2022-11-17T17:01:32.984Z,98295.19
2022-11-17T17:04:01.775Z,98293.88
2022-11-17T17:06:29.011Z,98300.09
2022-11-17T17:09:01.327Z,98300.44
2022-11-17T17:11:29.220Z,98291.59
2022-11-17T17:13:58.741Z,98295.03
2022-11-17T17:16:26.085Z,98295.19
2022-11-17T17:18:57.039Z,98295.84
2022-11-17T17:21:23.834Z,98296.66
2022-11-17T17:23:50.312Z,98297.81
2022-11-17T17:28:49.161Z,98295.84
2022-11-17T17:31:49.799Z,98293.53
2022-11-17T17:34:16.971Z,98302.09
2022-11-17T17:36:43.811Z,98301.44
2022-11-17T17:39:14.078Z,98296.84
2022-11-17T17:41:41.042Z,98296.00
2022-11-17T17:44:08.458Z,98300.09
2022-11-17T17:46:38.085Z,98300.44
2022-11-17T17:49:04.784Z,98300.78
2022-11-17T17:51:31.363Z,98304.56
2022-11-17T17:54:00.871Z,98298.97
2022-11-17T17:56:28.062Z,98305.22
2022-11-17T17:58:55.430Z,98299.78
2022-11-17T18:01:24.897Z,98302.75
2022-11-17T18:03:53.946Z,98296.84
2022-11-17T18:06:22.154Z,98297.19
2022-11-17T18:08:49.371Z,98302.41
2022-11-17T18:11:23.207Z,98300.09
2022-11-17T18:13:51.744Z,98304.06
2022-11-17T18:16:24.152Z,98304.38
2022-11-17T18:18:55.244Z,98300.09
2022-11-17T18:21:21.635Z,98292.88
2022-11-17T18:23:48.075Z,98296.66
2022-11-17T18:26:20.589Z,98303.41
2022-11-17T18:28:55.189Z,98298.75
2022-11-17T18:31:24.006Z,98298.28
2022-11-17T18:33:52.410Z,98296.66
2022-11-17T18:36:19.212Z,98295.19
2022-11-17T18:38:45.662Z,98292.25
2022-11-17T18:41:15.004Z,98295.38
2022-11-17T18:43:42.200Z,98295.84
2022-11-17T18:46:10.987Z,98297.00
2022-11-17T18:48:39.074Z,98295.22
2022-11-17T18:51:25.826Z,98297.84
2022-11-17T18:53:54.108Z,98281.41
2022-11-17T18:56:23.585Z,98290.78
2022-11-17T18:58:50.347Z,98284.84
2022-11-17T19:01:19.218Z,98282.41
2022-11-17T19:03:47.784Z,98283.41
2022-11-17T19:06:15.197Z,98281.72
2022-11-17T19:08:41.629Z,98284.38
2022-11-17T19:11:09.052Z,98282.72
2022-11-17T19:13:37.369Z,98289.97
2022-11-17T19:16:25.266Z,98287.97
2022-11-17T19:18:56.499Z,98285.34
2022-11-17T19:21:25.787Z,98295.22
2022-11-17T19:23:53.720Z,98282.22
2022-11-17T19:26:22.365Z,98284.38
2022-11-17T19:28:49.149Z,98288.50
2022-11-17T19:31:18.215Z,98292.25
2022-11-17T19:33:46.483Z,98303.25
2022-11-17T19:36:15.721Z,98294.91
2022-11-17T19:38:43.134Z,98294.91
2022-11-17T19:41:14.616Z,98289.81
2022-11-17T19:43:45.057Z,98299.81
2022-11-17T19:46:14.850Z,98304.44
2022-11-17T19:48:42.295Z,98304.09
2022-11-17T19:51:32.663Z,98303.44
2022-11-17T19:54:02.930Z,98316.72
2022-11-17T19:56:29.714Z,98309.03
2022-11-17T19:58:56.495Z,98307.38
2022-11-17T20:01:25.851Z,98306.41
2022-11-17T20:03:52.906Z,98299.81
2022-11-17T20:06:21.460Z,98298.50
2022-11-17T20:08:48.595Z,98298.16
2022-11-17T20:11:20.612Z,98298.69
2022-11-17T20:13:47.349Z,98304.09
2022-11-17T20:16:16.040Z,98304.91
2022-11-17T20:18:43.743Z,98305.09
2022-11-17T20:21:11.375Z,98298.16
2022-11-17T20:23:39.381Z,98306.72
2022-11-17T20:26:07.704Z,98304.44
2022-11-17T20:28:35.551Z,98312.94
2022-11-17T20:31:13.181Z,98303.28
2022-11-17T20:33:41.572Z,98312.66
2022-11-17T20:36:10.722Z,98304.09
2022-11-17T20:38:37.288Z,98299.97
2022-11-17T20:41:04.809Z,98304.25
2022-11-17T20:43:32.204Z,98297.84
2022-11-17T20:45:59.164Z,98298.84
2022-11-17T20:48:26.175Z,98296.53
2022-11-17T20:50:59.790Z,98292.59
2022-11-17T20:53:27.406Z,98290.94
2022-11-17T20:55:57.893Z,98293.91
2022-11-17T20:58:25.294Z,98295.53
2022-11-17T21:00:52.393Z,98305.72
2022-11-17T21:03:18.951Z,98296.88
2022-11-17T21:05:58.705Z,98289.00
2022-11-17T21:08:27.165Z,98292.75
2022-11-17T21:10:58.203Z,98293.88
2022-11-17T21:13:24.923Z,98296.38
2022-11-17T21:16:09.508Z,98305.06
2022-11-17T21:18:38.107Z,98314.25
2022-11-17T21:21:08.732Z,98305.22
2022-11-17T21:23:36.546Z,98312.28
2022-11-17T21:26:14.480Z,98318.06
2022-11-17T21:28:43.681Z,98320.03
2022-11-17T21:31:12.335Z,98310.31
2022-11-17T21:33:39.335Z,98319.53
2022-11-17T21:36:08.762Z,98304.41
2022-11-17T21:38:36.842Z,98301.78
2022-11-17T21:41:04.312Z,98303.59
2022-11-17T21:43:31.173Z,98305.06
2022-11-17T21:46:05.721Z,98296.19
2022-11-17T21:48:33.436Z,98298.47
2022-11-17T21:51:00.114Z,98301.78
2022-11-17T21:53:27.822Z,98292.25
2022-11-17T21:56:00.400Z,98294.69
2022-11-17T21:58:26.769Z,98295.38
2022-11-17T22:00:53.223Z,98302.75
2022-11-17T22:03:19.592Z,98314.94
2022-11-17T22:05:45.983Z,98314.59
2022-11-17T22:08:12.738Z,98323.47
2022-11-17T22:10:39.119Z,98317.88
2022-11-17T22:13:08.186Z,98322.16
2022-11-17T22:15:35.713Z,98334.63
2022-11-17T22:18:02.297Z,98327.75
2022-11-17T22:20:28.699Z,98329.72
2022-11-17T22:22:58.180Z,98333.00
2022-11-17T22:25:44.031Z,98329.38
2022-11-17T22:28:11.880Z,98335.78
2022-11-17T22:30:38.779Z,98340.22
2022-11-17T22:33:05.246Z,98334.00
2022-11-17T22:35:31.650Z,98334.97
2022-11-17T22:37:58.077Z,98332.34
2022-11-17T22:40:24.482Z,98322.16
2022-11-17T22:42:52.516Z,98318.84
2022-11-17T22:45:19.375Z,98320.84
2022-11-17T22:47:46.256Z,98326.94
2022-11-17T22:50:13.010Z,98329.38
2022-11-17T22:52:39.407Z,98331.38
2022-11-17T22:55:06.098Z,98335.63
2022-11-17T22:57:32.500Z,98333.34
2022-11-17T22:59:58.859Z,98333.34
2022-11-17T23:02:25.236Z,98333.34
2022-11-17T23:04:51.612Z,98332.66
2022-11-17T23:07:18.094Z,98325.09
2022-11-17T23:09:44.548Z,98335.63
2022-11-17T23:12:10.930Z,98330.03
2022-11-17T23:14:37.284Z,98324.78
2022-11-17T23:17:03.681Z,98321.19
2022-11-17T23:19:30.047Z,98320.84
2022-11-17T23:21:56.490Z,98324.44
2022-11-17T23:24:23.025Z,98338.59
2022-11-17T23:26:49.424Z,98341.41
2022-11-17T23:29:16.154Z,98344.50
2022-11-17T23:31:42.899Z,98345.19
2022-11-17T23:34:10.793Z,98347.81
2022-11-17T23:36:37.315Z,98347.47
2022-11-17T23:39:04.236Z,98353.03
2022-11-17T23:41:30.715Z,98345.47
2022-11-17T23:43:57.168Z,98355.69
2022-11-17T23:46:25.352Z,98354.03
2022-11-17T23:48:52.346Z,98357.66
2022-11-17T23:51:21.016Z,98354.53
2022-11-17T23:53:49.434Z,98355.34
2022-11-17T23:56:17.221Z,98358.97
2022-11-17T23:58:44.152Z,98350.09
